createdAt,value
2019-01-15T00:00:57.978Z,11.10
2019-01-15T00:01:58.154Z,11.90
2019-01-15T00:02:58.323Z,9.10
2019-01-15T00:03:58.494Z,12.00
2019-01-15T00:04:58.664Z,9.10
2019-01-15T00:05:58.890Z,7.90
2019-01-15T00:06:59.004Z,9.10
2019-01-15T00:07:59.172Z,8.70
2019-01-15T00:08:59.341Z,11.30
2019-01-15T00:09:59.512Z,9.70
2019-01-15T00:10:59.681Z,9.60
2019-01-15T00:11:59.857Z,12.40
2019-01-15T00:13:00.026Z,13.90
2019-01-15T00:14:00.193Z,11.30
2019-01-15T00:15:00.363Z,12.00
2019-01-15T00:16:00.537Z,9.40
2019-01-15T00:17:00.710Z,11.20
2019-01-15T00:18:00.885Z,9.10
2019-01-15T00:19:01.043Z,14.00
2019-01-15T00:20:01.206Z,9.40
2019-01-15T00:21:01.394Z,13.20
2019-01-15T00:22:01.555Z,7.50
2019-01-15T00:23:01.731Z,11.40
2019-01-15T00:24:01.891Z,9.90
2019-01-15T00:25:02.070Z,10.90
2019-01-15T00:26:02.244Z,12.00
2019-01-15T00:27:02.413Z,12.90
2019-01-15T00:28:02.583Z,10.20
2019-01-15T00:29:02.742Z,12.40
2019-01-15T00:30:02.915Z,10.00
2019-01-15T00:31:03.085Z,8.70
2019-01-15T00:32:03.258Z,10.90
2019-01-15T00:33:03.429Z,9.40
2019-01-15T00:34:03.596Z,9.10
2019-01-15T00:35:03.763Z,12.00
2019-01-15T00:36:03.937Z,11.00
2019-01-15T00:37:04.108Z,10.10
2019-01-15T00:38:04.290Z,14.50
2019-01-15T00:39:04.449Z,12.10
2019-01-15T00:40:04.625Z,12.20
2019-01-15T00:41:04.795Z,10.40
2019-01-15T00:42:04.964Z,9.30
2019-01-15T00:43:05.134Z,10.80
2019-01-15T00:44:05.302Z,11.60
2019-01-15T00:45:05.472Z,10.70
2019-01-15T00:46:05.644Z,13.00
2019-01-15T00:47:05.813Z,11.70
2019-01-15T00:48:05.986Z,11.50
2019-01-15T00:49:06.153Z,12.70
2019-01-15T00:50:06.322Z,10.30
2019-01-15T00:51:06.497Z,14.70
2019-01-15T00:52:06.668Z,10.70
2019-01-15T00:53:06.862Z,13.00
2019-01-15T00:54:07.009Z,11.30
2019-01-15T00:55:07.176Z,13.30
2019-01-15T00:56:07.359Z,11.50
2019-01-15T00:57:07.530Z,8.60
2019-01-15T00:58:07.691Z,13.00
2019-01-15T00:59:07.868Z,9.50
2019-01-15T01:00:08.041Z,10.70
2019-01-15T01:01:08.212Z,9.40
2019-01-15T01:02:08.384Z,9.70
2019-01-15T01:03:08.561Z,10.40
2019-01-15T01:04:08.726Z,13.20
2019-01-15T01:05:08.889Z,12.30
2019-01-15T01:07:09.226Z,8.90
2019-01-15T01:09:09.560Z,12.30
2019-01-15T01:10:09.731Z,10.00
2019-01-15T01:12:10.088Z,9.00
2019-01-15T01:13:10.233Z,7.50
2019-01-15T01:14:10.404Z,11.50
2019-01-15T01:15:10.572Z,9.30
2019-01-15T01:16:10.747Z,9.40
2019-01-15T01:17:10.915Z,9.20
2019-01-15T01:18:11.095Z,8.20
2019-01-15T01:19:11.258Z,12.90
2019-01-15T01:20:11.426Z,9.40
2019-01-15T01:21:11.598Z,10.90
2019-01-15T01:22:11.821Z,8.00
2019-01-15T01:23:11.937Z,11.60
2019-01-15T01:24:12.100Z,12.70
2019-01-15T01:25:12.271Z,9.30
2019-01-15T01:26:12.443Z,11.30
2019-01-15T01:27:12.613Z,9.80
2019-01-15T01:28:12.786Z,12.10
2019-01-15T01:29:12.954Z,11.30
2019-01-15T01:30:13.124Z,13.60
2019-01-15T01:31:13.298Z,6.50
2019-01-15T01:32:13.465Z,10.30
2019-01-15T01:33:13.636Z,14.90
2019-01-15T01:34:13.817Z,10.10
2019-01-15T01:35:13.977Z,8.90
2019-01-15T01:36:14.153Z,15.80
2019-01-15T01:37:14.330Z,13.20
2019-01-15T01:38:14.491Z,12.20
2019-01-15T01:39:14.658Z,9.70
2019-01-15T01:40:14.839Z,8.10
2019-01-15T01:41:15.002Z,12.60
2019-01-15T01:42:15.171Z,9.40
2019-01-15T01:43:15.344Z,11.60
2019-01-15T01:44:15.510Z,12.90
2019-01-15T01:45:15.684Z,11.10
2019-01-15T01:46:15.853Z,10.30
2019-01-15T01:47:16.023Z,7.00
2019-01-15T01:48:16.194Z,10.30
2019-01-15T01:49:16.364Z,9.90
2019-01-15T01:50:16.532Z,10.00
2019-01-15T01:51:16.697Z,10.70
2019-01-15T01:52:16.875Z,12.10
2019-01-15T01:53:17.047Z,10.50
2019-01-15T01:54:17.221Z,8.10
2019-01-15T01:55:17.387Z,12.10
2019-01-15T01:56:17.555Z,11.00
2019-01-15T01:57:17.726Z,10.00
2019-01-15T01:58:17.895Z,13.20
2019-01-15T01:59:18.067Z,12.20
2019-01-15T02:00:18.231Z,10.10
2019-01-15T02:01:18.405Z,10.30
2019-01-15T02:02:18.577Z,12.00
2019-01-15T02:03:18.747Z,8.30
2019-01-15T02:04:18.916Z,10.30
2019-01-15T02:05:19.087Z,11.90
2019-01-15T02:06:19.256Z,7.60
2019-01-15T02:07:19.429Z,12.50
2019-01-15T02:08:19.602Z,8.20
2019-01-15T02:09:19.771Z,9.20
2019-01-15T02:10:19.939Z,10.70
2019-01-15T02:11:20.131Z,9.40
2019-01-15T02:12:20.281Z,10.30
2019-01-15T02:13:20.462Z,10.80
2019-01-15T02:14:20.622Z,9.60
2019-01-15T02:15:20.790Z,11.50
2019-01-15T02:16:20.959Z,7.60
2019-01-15T02:17:21.133Z,12.60
2019-01-15T02:18:21.306Z,13.20
2019-01-15T02:19:21.474Z,9.90
2019-01-15T02:20:21.643Z,9.50
2019-01-15T02:21:21.824Z,10.30
2019-01-15T02:22:21.988Z,9.30
2019-01-15T02:23:22.159Z,10.50
2019-01-15T02:24:22.327Z,9.80
2019-01-15T02:25:22.498Z,10.30
2019-01-15T02:26:22.678Z,9.90
2019-01-15T02:27:22.837Z,10.80
2019-01-15T02:28:23.004Z,11.80
2019-01-15T02:29:23.176Z,9.10
2019-01-15T02:30:23.351Z,12.30
2019-01-15T02:31:23.519Z,9.80
2019-01-15T02:32:23.685Z,7.80
2019-01-15T02:33:23.857Z,7.50
2019-01-15T02:34:24.028Z,10.70
2019-01-15T02:35:24.203Z,8.40
2019-01-15T02:36:24.369Z,11.50
2019-01-15T02:37:24.541Z,8.90
2019-01-15T02:38:24.713Z,8.90
2019-01-15T02:39:24.878Z,11.10
2019-01-15T02:40:25.049Z,8.60
2019-01-15T02:41:25.220Z,11.40
2019-01-15T02:42:25.389Z,9.00
2019-01-15T02:43:25.566Z,10.70
2019-01-15T02:44:25.729Z,8.50
2019-01-15T02:45:25.907Z,11.80
2019-01-15T02:46:26.078Z,7.20
2019-01-15T02:47:26.247Z,9.60
2019-01-15T02:48:26.424Z,7.00
2019-01-15T02:49:26.583Z,11.20
2019-01-15T02:50:26.753Z,11.80
2019-01-15T02:51:26.924Z,7.90
2019-01-15T02:52:27.094Z,7.80
2019-01-15T02:53:27.271Z,11.20
2019-01-15T02:54:27.434Z,8.60
2019-01-15T02:55:27.606Z,8.50
2019-01-15T02:56:27.777Z,12.20
2019-01-15T02:57:27.946Z,8.70
2019-01-15T02:58:28.121Z,10.00
2019-01-15T02:59:28.288Z,10.60
2019-01-15T03:00:28.469Z,12.40
2019-01-15T03:01:28.629Z,11.50
2019-01-15T03:02:28.799Z,10.00
2019-01-15T03:03:28.970Z,10.40
2019-01-15T03:04:29.144Z,11.40
2019-01-15T03:05:29.315Z,8.50
2019-01-15T03:06:29.482Z,11.50
2019-01-15T03:07:29.653Z,12.20
2019-01-15T03:08:29.824Z,8.90
2019-01-15T03:09:30.002Z,8.70
2019-01-15T03:10:30.171Z,8.80
2019-01-15T03:11:30.335Z,9.30
2019-01-15T03:12:30.523Z,10.50
2019-01-15T03:13:30.681Z,7.90
2019-01-15T03:14:30.857Z,10.70
2019-01-15T03:15:31.020Z,12.10
2019-01-15T03:16:31.189Z,11.00
2019-01-15T03:17:31.365Z,10.10
2019-01-15T03:18:31.538Z,11.60
2019-01-15T03:19:31.706Z,9.50
2019-01-15T03:20:31.964Z,10.10
2019-01-15T03:21:32.038Z,14.80
2019-01-15T03:22:32.208Z,11.10
2019-01-15T03:23:32.383Z,9.30
2019-01-15T03:24:32.549Z,9.80
2019-01-15T03:25:32.722Z,11.70
2019-01-15T03:26:32.894Z,10.30
2019-01-15T03:27:33.066Z,10.90
2019-01-15T03:29:33.405Z,11.20
2019-01-15T03:30:33.575Z,8.20
2019-01-15T03:31:33.763Z,11.80
2019-01-15T03:32:33.924Z,9.30
2019-01-15T03:33:34.094Z,10.20
2019-01-15T03:34:34.255Z,11.40
2019-01-15T03:35:34.419Z,10.40
2019-01-15T03:36:34.597Z,7.30
2019-01-15T03:37:34.767Z,9.30
2019-01-15T03:38:34.937Z,12.30
2019-01-15T03:39:35.104Z,9.80
2019-01-15T03:40:35.274Z,11.30
2019-01-15T03:41:35.444Z,11.10
2019-01-15T03:42:35.618Z,8.70
2019-01-15T03:43:35.789Z,9.20
2019-01-15T03:44:35.957Z,8.80
2019-01-15T03:45:36.128Z,9.70
2019-01-15T03:46:36.308Z,12.20
2019-01-15T03:47:36.472Z,9.90
2019-01-15T03:48:36.644Z,8.80
2019-01-15T03:49:36.815Z,13.90
2019-01-15T03:50:36.985Z,8.20
2019-01-15T03:51:37.164Z,8.50
2019-01-15T03:52:37.328Z,10.70
2019-01-15T03:53:37.501Z,13.70
2019-01-15T03:54:37.673Z,9.40
2019-01-15T03:55:37.839Z,11.50
2019-01-15T03:56:38.022Z,10.80
2019-01-15T03:57:38.180Z,9.80
2019-01-15T03:58:38.353Z,8.60
2019-01-15T03:59:38.525Z,8.60
2019-01-15T04:00:38.692Z,12.10
2019-01-15T04:01:38.867Z,13.60
2019-01-15T04:02:39.079Z,8.20
2019-01-15T04:03:39.212Z,10.60
2019-01-15T04:04:39.375Z,10.50
2019-01-15T04:05:39.545Z,11.50
2019-01-15T04:06:39.718Z,11.90
2019-01-15T04:07:39.888Z,8.60
2019-01-15T04:08:40.059Z,9.40
2019-01-15T04:09:40.234Z,8.90
2019-01-15T04:10:40.396Z,10.70
2019-01-15T04:11:40.568Z,14.70
2019-01-15T04:12:40.746Z,9.10
2019-01-15T04:13:40.911Z,10.20
2019-01-15T04:14:41.082Z,9.60
2019-01-15T04:15:41.252Z,9.10
2019-01-15T04:16:41.418Z,10.20
2019-01-15T04:17:41.591Z,11.90
2019-01-15T04:18:41.761Z,9.30
2019-01-15T04:19:41.930Z,12.30
2019-01-15T04:20:42.109Z,11.30
2019-01-15T04:21:42.273Z,8.80
2019-01-15T04:22:42.443Z,9.50
2019-01-15T04:23:42.612Z,11.10
2019-01-15T04:24:42.782Z,11.40
2019-01-15T04:25:42.951Z,9.70
2019-01-15T04:26:43.119Z,9.30
2019-01-15T04:27:43.292Z,10.80
2019-01-15T04:28:43.464Z,8.60
2019-01-15T04:29:43.634Z,10.80
2019-01-15T04:30:43.806Z,10.40
2019-01-15T04:31:43.974Z,13.10
2019-01-15T04:32:44.145Z,10.60
2019-01-15T04:33:44.310Z,9.80
2019-01-15T04:34:44.475Z,8.80
2019-01-15T04:35:44.653Z,9.80
2019-01-15T04:36:44.830Z,10.00
2019-01-15T04:37:45.637Z,10.80
2019-01-15T04:38:45.166Z,9.70
2019-01-15T04:39:45.329Z,8.70
2019-01-15T04:40:45.508Z,12.80
2019-01-15T04:41:45.686Z,8.90
2019-01-15T04:42:45.856Z,13.60
2019-01-15T04:43:46.033Z,9.90
2019-01-15T04:44:46.201Z,9.60
2019-01-15T04:45:46.391Z,11.40
2019-01-15T04:46:46.543Z,10.80
2019-01-15T04:47:46.713Z,10.20
2019-01-15T04:48:46.893Z,9.80
2019-01-15T04:49:47.053Z,10.10
2019-01-15T04:50:47.223Z,10.80
2019-01-15T04:51:47.398Z,10.30
2019-01-15T04:52:47.584Z,12.40
2019-01-15T04:53:47.751Z,9.10
2019-01-15T04:54:47.913Z,9.00
2019-01-15T04:55:48.099Z,13.60
2019-01-15T04:56:48.259Z,11.20
2019-01-15T04:57:48.424Z,9.70
2019-01-15T04:58:48.603Z,8.90
2019-01-15T04:59:48.770Z,10.30
2019-01-15T05:00:48.965Z,11.60
2019-01-15T05:01:49.110Z,12.90
2019-01-15T05:02:49.284Z,10.60
2019-01-15T05:03:49.804Z,10.30
2019-01-15T05:04:49.635Z,8.80
2019-01-15T05:05:49.855Z,9.90
2019-01-15T05:06:49.955Z,10.60
2019-01-15T05:07:50.134Z,12.90
2019-01-15T05:08:50.299Z,10.60
2019-01-15T05:09:50.470Z,8.40
2019-01-15T05:10:50.639Z,10.60
2019-01-15T05:11:50.811Z,10.10
2019-01-15T05:12:50.984Z,13.40
2019-01-15T05:13:51.149Z,11.70
2019-01-15T05:14:51.310Z,13.10
2019-01-15T05:15:51.491Z,8.20
2019-01-15T05:16:51.669Z,7.40
2019-01-15T05:17:51.828Z,11.60
2019-01-15T05:18:52.015Z,8.20
2019-01-15T05:19:52.174Z,11.20
2019-01-15T05:20:52.347Z,10.50
2019-01-15T05:21:52.516Z,11.20
2019-01-15T05:22:52.683Z,11.10
2019-01-15T05:23:52.863Z,7.90
2019-01-15T05:24:53.033Z,11.60
2019-01-15T05:25:53.201Z,14.20
2019-01-15T05:26:53.369Z,13.10
2019-01-15T05:27:53.543Z,8.50
2019-01-15T05:28:53.715Z,11.00
2019-01-15T05:29:53.887Z,12.80
2019-01-15T05:30:54.074Z,10.40
2019-01-15T05:31:54.255Z,11.60
2019-01-15T05:32:54.428Z,10.80
2019-01-15T05:33:54.607Z,11.60
2019-01-15T05:34:54.760Z,11.50
2019-01-15T05:35:54.929Z,8.90
2019-01-15T05:36:55.121Z,14.70
2019-01-15T05:37:55.275Z,12.90
2019-01-15T05:38:55.449Z,12.00
2019-01-15T05:39:55.611Z,12.90
2019-01-15T05:40:55.781Z,10.10
2019-01-15T05:41:55.951Z,8.80
2019-01-15T05:42:56.128Z,11.80
2019-01-15T05:43:56.288Z,11.80
2019-01-15T05:44:56.458Z,13.00
2019-01-15T05:45:56.643Z,13.90
2019-01-15T05:46:56.797Z,13.30
2019-01-15T05:47:56.966Z,12.30
2019-01-15T05:48:57.143Z,13.00
2019-01-15T05:49:57.311Z,11.00
2019-01-15T05:50:57.482Z,8.70
2019-01-15T05:51:57.652Z,13.60
2019-01-15T05:52:57.827Z,13.60
2019-01-15T05:53:57.994Z,14.50
2019-01-15T05:54:58.172Z,18.90
2019-01-15T05:55:58.333Z,11.90
2019-01-15T05:56:58.501Z,13.80
2019-01-15T05:57:58.667Z,11.60
2019-01-15T05:58:58.842Z,10.90
2019-01-15T05:59:59.010Z,11.60
2019-01-15T06:00:59.182Z,13.40
2019-01-15T06:01:59.352Z,14.00
2019-01-15T06:02:59.529Z,12.60
2019-01-15T06:03:59.695Z,9.90
2019-01-15T06:04:59.867Z,10.30
2019-01-15T06:06:00.056Z,12.70
2019-01-15T06:07:00.224Z,12.40
2019-01-15T06:08:00.401Z,12.20
2019-01-15T06:09:00.565Z,18.90
2019-01-15T06:10:00.735Z,14.30
2019-01-15T06:11:00.925Z,17.40
2019-01-15T06:12:01.069Z,13.80
2019-01-15T06:13:01.241Z,12.00
2019-01-15T06:14:01.409Z,10.60
2019-01-15T06:15:01.582Z,12.40
2019-01-15T06:16:01.752Z,13.60
2019-01-15T06:17:01.928Z,15.30
2019-01-15T06:18:02.091Z,14.40
2019-01-15T06:19:02.263Z,14.40
2019-01-15T06:20:02.443Z,13.50
2019-01-15T06:21:02.603Z,14.00
2019-01-15T06:22:02.773Z,11.20
2019-01-15T06:23:02.939Z,12.00
2019-01-15T06:24:03.112Z,12.00
2019-01-15T06:25:03.286Z,13.00
2019-01-15T06:26:03.455Z,11.50
2019-01-15T06:27:03.624Z,13.90
2019-01-15T06:28:03.801Z,13.80
2019-01-15T06:29:03.984Z,14.90
2019-01-15T06:30:04.154Z,11.10
2019-01-15T06:31:04.322Z,11.90
2019-01-15T06:32:04.500Z,12.40
2019-01-15T06:33:04.670Z,13.50
2019-01-15T06:34:04.847Z,14.20
2019-01-15T06:35:05.015Z,11.70
2019-01-15T06:36:05.178Z,12.50
2019-01-15T06:37:05.368Z,12.50
2019-01-15T06:38:05.524Z,17.20
2019-01-15T06:39:05.698Z,11.30
2019-01-15T06:40:05.868Z,13.10
2019-01-15T06:41:06.036Z,15.30
2019-01-15T06:42:06.213Z,14.50
2019-01-15T06:43:06.377Z,11.00
2019-01-15T06:44:06.545Z,11.40
2019-01-15T06:45:06.717Z,11.70
2019-01-15T06:46:06.888Z,14.10
2019-01-15T06:47:07.065Z,13.50
2019-01-15T06:48:07.236Z,12.30
2019-01-15T06:49:07.409Z,21.20
2019-01-15T06:50:07.575Z,14.20
2019-01-15T06:51:07.746Z,14.40
2019-01-15T06:52:07.922Z,11.90
2019-01-15T06:53:08.096Z,12.80
2019-01-15T06:54:08.271Z,14.70
2019-01-15T06:55:08.426Z,12.60
2019-01-15T06:56:08.610Z,17.10
2019-01-15T06:57:08.797Z,12.80
2019-01-15T06:58:08.965Z,10.70
2019-01-15T06:59:09.131Z,11.70
2019-01-15T07:00:09.302Z,14.00
2019-01-15T07:01:09.464Z,17.50
2019-01-15T07:02:09.635Z,13.20
2019-01-15T07:03:09.805Z,52.50
2019-01-15T07:04:09.976Z,18.60
2019-01-15T07:05:10.144Z,18.70
2019-01-15T07:06:10.322Z,17.20
2019-01-15T07:07:10.499Z,13.60
2019-01-15T07:08:10.669Z,11.80
2019-01-15T07:09:10.832Z,11.50
2019-01-15T07:10:10.999Z,15.60
2019-01-15T07:11:11.164Z,13.70
2019-01-15T07:12:11.406Z,13.40
2019-01-15T07:13:11.508Z,15.40
2019-01-15T07:14:11.681Z,13.30
2019-01-15T07:15:11.854Z,12.40
2019-01-15T07:16:12.022Z,10.80
2019-01-15T07:17:12.197Z,14.40
2019-01-15T07:18:12.372Z,14.80
2019-01-15T07:19:12.540Z,16.50
2019-01-15T07:20:12.708Z,15.70
2019-01-15T07:21:12.881Z,13.30
2019-01-15T07:22:13.058Z,14.30
2019-01-15T07:23:13.236Z,16.20
2019-01-15T07:24:13.395Z,10.00
2019-01-15T07:25:13.566Z,14.80
2019-01-15T07:26:15.224Z,17.40
2019-01-15T07:27:13.910Z,12.70
2019-01-15T07:28:14.080Z,15.30
2019-01-15T07:29:14.249Z,12.40
2019-01-15T07:30:14.416Z,14.00
2019-01-15T07:31:14.590Z,12.70
2019-01-15T07:32:14.759Z,10.70
2019-01-15T07:33:14.939Z,12.80
2019-01-15T07:34:15.109Z,9.90
2019-01-15T07:35:15.291Z,12.70
2019-01-15T07:36:15.445Z,12.60
2019-01-15T07:37:15.653Z,13.20
2019-01-15T07:38:15.770Z,8.90
2019-01-15T07:39:15.942Z,12.20
2019-01-15T07:40:16.109Z,11.80
2019-01-15T07:41:16.285Z,12.10
2019-01-15T07:42:16.457Z,11.90
2019-01-15T07:43:16.617Z,11.40
2019-01-15T07:44:16.789Z,11.50
2019-01-15T07:45:16.962Z,11.30
2019-01-15T07:46:17.136Z,35.30
2019-01-15T07:47:17.304Z,77.90
2019-01-15T07:48:17.470Z,63.70
2019-01-15T07:49:17.640Z,40.60
2019-01-15T07:50:17.813Z,16.30
2019-01-15T07:52:18.150Z,9.50
2019-01-15T07:53:18.315Z,12.50
2019-01-15T07:54:18.501Z,11.30
2019-01-15T07:55:18.658Z,11.80
2019-01-15T07:56:18.833Z,9.30
2019-01-15T07:57:18.995Z,10.80
2019-01-15T07:58:19.187Z,11.30
2019-01-15T07:59:19.339Z,10.40
2019-01-15T08:00:19.512Z,11.20
2019-01-15T08:01:19.681Z,12.30
2019-01-15T08:02:19.847Z,12.70
2019-01-15T08:03:20.026Z,9.70
2019-01-15T08:04:20.189Z,9.40
2019-01-15T08:05:20.361Z,9.10
2019-01-15T08:06:20.529Z,10.40
2019-01-15T08:07:20.710Z,7.00
2019-01-15T08:08:20.877Z,11.00
2019-01-15T08:09:21.046Z,8.70
2019-01-15T08:10:21.231Z,8.00
2019-01-15T08:11:21.386Z,9.50
2019-01-15T08:12:21.563Z,12.00
2019-01-15T08:13:21.736Z,8.50
2019-01-15T08:14:21.907Z,10.30
2019-01-15T08:15:22.078Z,10.10
2019-01-15T08:16:22.239Z,10.10
2019-01-15T08:17:22.415Z,12.10
2019-01-15T08:18:22.590Z,9.60
2019-01-15T08:19:22.760Z,6.40
2019-01-15T08:20:22.921Z,10.60
2019-01-15T08:21:23.092Z,7.60
2019-01-15T08:22:23.263Z,7.90
2019-01-15T08:23:23.443Z,7.00
2019-01-15T08:24:23.607Z,8.40
2019-01-15T08:25:23.784Z,6.70
2019-01-15T08:26:23.951Z,8.50
2019-01-15T08:27:24.124Z,6.40
2019-01-15T08:28:24.302Z,10.60
2019-01-15T08:29:24.466Z,9.90
2019-01-15T08:30:24.639Z,7.20
2019-01-15T08:31:24.808Z,6.70
2019-01-15T08:32:24.986Z,5.30
2019-01-15T08:33:25.147Z,9.00
2019-01-15T08:34:25.304Z,9.80
2019-01-15T08:35:25.496Z,5.60
2019-01-15T08:36:25.662Z,6.50
2019-01-15T08:37:25.843Z,6.80
2019-01-15T08:38:26.001Z,6.10
2019-01-15T08:39:26.171Z,6.10
2019-01-15T08:40:26.341Z,6.20
2019-01-15T08:41:26.510Z,5.90
2019-01-15T08:42:26.681Z,9.30
2019-01-15T08:43:26.850Z,6.20
2019-01-15T08:44:27.024Z,6.70
2019-01-15T08:45:27.184Z,4.60
2019-01-15T08:46:27.360Z,6.00
2019-01-15T08:47:27.535Z,6.70
2019-01-15T08:48:27.686Z,5.80
2019-01-15T08:49:27.867Z,7.30
2019-01-15T08:50:28.040Z,6.80
2019-01-15T08:51:28.223Z,8.80
2019-01-15T08:52:28.372Z,8.20
2019-01-15T08:53:28.547Z,9.00
2019-01-15T08:54:28.722Z,9.20
2019-01-15T08:55:28.886Z,11.70
2019-01-15T08:56:29.055Z,8.00
2019-01-15T08:57:29.236Z,7.10
2019-01-15T08:58:29.397Z,6.80
2019-01-15T08:59:29.563Z,8.60
2019-01-15T09:00:29.750Z,10.10
2019-01-15T09:01:29.907Z,5.00
2019-01-15T09:02:30.087Z,7.40
2019-01-15T09:03:30.266Z,6.70
2019-01-15T09:04:30.423Z,7.10
2019-01-15T09:05:30.594Z,9.50
2019-01-15T09:06:30.767Z,5.20
2019-01-15T09:07:30.951Z,8.00
2019-01-15T09:08:31.115Z,6.10
2019-01-15T09:09:31.292Z,7.20
2019-01-15T09:10:31.465Z,7.50
2019-01-15T09:11:31.636Z,6.20
2019-01-15T09:12:31.810Z,6.00
2019-01-15T09:13:31.983Z,5.00
2019-01-15T09:14:32.138Z,7.20
2019-01-15T09:15:32.318Z,7.10
2019-01-15T09:16:32.497Z,6.00
2019-01-15T09:17:32.667Z,6.50
2019-01-15T09:18:32.836Z,8.50
2019-01-15T09:19:33.030Z,4.80
2019-01-15T09:20:33.184Z,5.70
2019-01-15T09:21:33.358Z,7.60
2019-01-15T09:22:33.535Z,6.60
2019-01-15T09:23:33.716Z,5.60
2019-01-15T09:24:33.869Z,4.50
2019-01-15T09:25:34.040Z,5.00
2019-01-15T09:26:34.225Z,5.50
2019-01-15T09:27:34.381Z,6.20
2019-01-15T09:28:34.548Z,3.60
2019-01-15T09:29:34.710Z,4.50
2019-01-15T09:30:34.879Z,6.30
2019-01-15T09:31:35.056Z,6.20
2019-01-15T09:32:35.227Z,8.00
2019-01-15T09:33:35.399Z,6.50
2019-01-15T09:34:35.562Z,6.70
2019-01-15T09:35:35.740Z,4.40
2019-01-15T09:36:35.901Z,6.30
2019-01-15T09:37:36.075Z,7.90
2019-01-15T09:38:36.251Z,4.10
2019-01-15T09:39:36.410Z,7.10
2019-01-15T09:40:36.596Z,7.20
2019-01-15T09:41:36.749Z,6.90
2019-01-15T09:42:36.918Z,4.50
2019-01-15T09:43:37.093Z,6.60
2019-01-15T09:44:37.267Z,4.70
2019-01-15T09:45:37.467Z,6.00
2019-01-15T09:46:37.604Z,4.90
2019-01-15T09:47:37.767Z,5.70
2019-01-15T09:48:37.939Z,6.10
2019-01-15T09:49:38.128Z,7.20
2019-01-15T09:50:38.291Z,4.70
2019-01-15T09:51:38.453Z,5.80
2019-01-15T09:52:38.632Z,5.00
2019-01-15T09:53:38.801Z,6.80
2019-01-15T09:54:38.974Z,6.20
2019-01-15T09:55:39.147Z,5.40
2019-01-15T09:56:40.510Z,3.80
2019-01-15T09:57:39.490Z,5.60
2019-01-15T09:58:39.667Z,5.50
2019-01-15T09:59:39.834Z,5.00
2019-01-15T10:00:40.014Z,5.10
2019-01-15T10:01:40.182Z,6.00
2019-01-15T10:02:40.355Z,5.00
2019-01-15T10:03:40.522Z,5.00
2019-01-15T10:04:40.703Z,6.50
2019-01-15T10:05:40.876Z,5.00
2019-01-15T10:06:41.038Z,4.10
2019-01-15T10:07:41.214Z,36.30
2019-01-15T10:08:41.396Z,58.60
2019-01-15T10:09:41.563Z,7.20
2019-01-15T10:10:41.741Z,5.20
2019-01-15T10:11:41.897Z,5.10
2019-01-15T10:12:42.071Z,4.10
2019-01-15T10:13:42.240Z,5.10
2019-01-15T10:14:42.420Z,7.20
2019-01-15T10:15:42.575Z,5.90
2019-01-15T10:16:42.742Z,5.40
2019-01-15T10:17:42.990Z,5.90
2019-01-15T10:18:43.167Z,4.40
2019-01-15T10:19:43.370Z,6.30
2019-01-15T10:20:43.504Z,5.80
2019-01-15T10:21:43.673Z,5.50
2019-01-15T10:22:43.844Z,6.60
2019-01-15T10:23:44.015Z,5.30
2019-01-15T10:24:44.721Z,5.60
2019-01-15T10:25:44.356Z,5.70
2019-01-15T10:26:44.524Z,7.00
2019-01-15T10:27:44.697Z,6.80
2019-01-15T10:28:44.871Z,6.60
2019-01-15T10:29:45.038Z,6.00
2019-01-15T10:30:45.209Z,7.60
2019-01-15T10:31:45.392Z,7.70
2019-01-15T10:32:45.555Z,5.90
2019-01-15T10:33:45.729Z,7.40
2019-01-15T10:34:45.897Z,7.60
2019-01-15T10:35:46.069Z,7.50
2019-01-15T10:36:46.248Z,7.60
2019-01-15T10:37:46.412Z,7.20
2019-01-15T10:38:46.585Z,6.80
2019-01-15T10:39:46.757Z,8.90
2019-01-15T10:40:46.929Z,7.00
2019-01-15T10:41:47.099Z,6.80
2019-01-15T10:42:47.271Z,7.30
2019-01-15T10:43:47.443Z,7.70
2019-01-15T10:44:48.776Z,6.60
2019-01-15T10:45:47.792Z,6.60
2019-01-15T10:46:47.958Z,8.80
2019-01-15T10:47:48.127Z,7.40
2019-01-15T10:48:48.300Z,7.20
2019-01-15T10:49:48.461Z,7.90
2019-01-15T10:50:48.637Z,6.90
2019-01-15T10:51:48.805Z,4.70
2019-01-15T10:52:48.977Z,7.10
2019-01-15T10:53:49.146Z,8.50
2019-01-15T10:54:49.316Z,7.90
2019-01-15T10:55:49.487Z,6.20
2019-01-15T10:56:49.659Z,7.00
2019-01-15T10:57:49.832Z,7.90
2019-01-15T10:58:50.009Z,8.30
2019-01-15T10:59:50.172Z,5.90
2019-01-15T11:00:50.345Z,9.30
2019-01-15T11:01:50.519Z,8.60
2019-01-15T11:02:50.690Z,8.60
2019-01-15T11:03:50.862Z,6.60
2019-01-15T11:04:51.038Z,7.20
2019-01-15T11:05:51.211Z,7.00
2019-01-15T11:06:51.376Z,7.10
2019-01-15T11:07:51.549Z,7.70
2019-01-15T11:08:51.719Z,7.40
2019-01-15T11:09:51.892Z,5.30
2019-01-15T11:10:52.065Z,6.60
2019-01-15T11:11:52.247Z,6.60
2019-01-15T11:12:52.413Z,10.30
2019-01-15T11:13:52.587Z,7.20
2019-01-15T11:14:56.314Z,6.60
2019-01-15T11:15:52.925Z,8.40
2019-01-15T11:16:53.098Z,7.20
2019-01-15T11:17:53.272Z,5.70
2019-01-15T11:18:53.454Z,8.30
2019-01-15T11:19:53.617Z,8.40
2019-01-15T11:20:53.840Z,8.40
2019-01-15T11:21:53.960Z,9.60
2019-01-15T11:22:54.135Z,8.80
2019-01-15T11:23:54.305Z,9.40
2019-01-15T11:24:54.473Z,8.70
2019-01-15T11:25:54.656Z,7.70
2019-01-15T11:26:54.810Z,7.80
2019-01-15T11:27:54.983Z,6.50
2019-01-15T11:28:55.193Z,7.50
2019-01-15T11:29:55.323Z,8.40
2019-01-15T11:30:55.503Z,6.70
2019-01-15T11:31:55.686Z,7.00
2019-01-15T11:32:55.850Z,6.60
2019-01-15T11:33:56.015Z,8.30
2019-01-15T11:34:56.182Z,8.10
2019-01-15T11:35:56.353Z,12.10
2019-01-15T11:36:56.529Z,9.00
2019-01-15T11:37:56.692Z,9.10
2019-01-15T11:38:56.869Z,8.60
2019-01-15T11:39:57.041Z,8.10
2019-01-15T11:40:57.213Z,8.70
2019-01-15T11:41:57.376Z,8.90
2019-01-15T11:42:57.544Z,9.00
2019-01-15T11:43:57.722Z,8.80
2019-01-15T11:45:03.390Z,7.10
2019-01-15T11:45:58.068Z,7.70
2019-01-15T11:46:58.239Z,7.00
2019-01-15T11:47:58.423Z,9.80
2019-01-15T11:48:58.593Z,8.30
2019-01-15T11:49:58.763Z,7.60
2019-01-15T11:50:58.933Z,8.20
2019-01-15T11:51:59.108Z,7.80
2019-01-15T11:52:59.284Z,8.80
2019-01-15T11:53:59.457Z,9.20
2019-01-15T11:54:59.633Z,8.40
2019-01-15T11:55:59.796Z,8.00
2019-01-15T11:56:59.990Z,11.30
2019-01-15T11:58:00.136Z,7.10
2019-01-15T11:59:00.339Z,9.60
2019-01-15T12:00:00.482Z,9.90
2019-01-15T12:01:00.648Z,12.50
2019-01-15T12:02:00.803Z,11.70
2019-01-15T12:03:00.970Z,10.10
2019-01-15T12:04:01.136Z,9.10
2019-01-15T12:05:01.307Z,8.70
2019-01-15T12:06:01.471Z,8.30
2019-01-15T12:08:01.795Z,8.90
2019-01-15T12:09:01.973Z,13.00
2019-01-15T12:10:02.151Z,10.30
2019-01-15T12:11:02.342Z,9.10
2019-01-15T12:12:02.484Z,9.30
2019-01-15T12:13:02.696Z,8.30
2019-01-15T12:14:02.847Z,9.70
2019-01-15T12:15:03.007Z,9.70
2019-01-15T12:16:03.181Z,10.70
2019-01-15T12:17:03.351Z,11.40
2019-01-15T12:18:03.514Z,10.60
2019-01-15T12:19:03.689Z,12.60
2019-01-15T12:20:03.862Z,9.90
2019-01-15T12:21:04.031Z,10.50
2019-01-15T12:22:04.204Z,10.00
2019-01-15T12:23:04.375Z,9.30
2019-01-15T12:24:05.305Z,9.00
2019-01-15T12:25:04.721Z,9.00
2019-01-15T12:26:04.896Z,10.30
2019-01-15T12:27:05.068Z,13.40
2019-01-15T12:28:05.238Z,10.40
2019-01-15T12:29:05.411Z,11.70
2019-01-15T12:30:05.585Z,13.50
2019-01-15T12:31:05.767Z,9.60
2019-01-15T12:32:05.946Z,9.80
2019-01-15T12:33:06.097Z,11.30
2019-01-15T12:34:06.268Z,11.40
2019-01-15T12:35:06.440Z,8.00
2019-01-15T12:36:06.619Z,10.10
2019-01-15T12:37:06.783Z,12.80
2019-01-15T12:38:06.952Z,12.00
2019-01-15T12:39:07.128Z,8.20
2019-01-15T12:40:07.298Z,8.10
2019-01-15T12:41:07.482Z,10.20
2019-01-15T12:42:07.667Z,12.20
2019-01-15T12:43:07.828Z,8.60
2019-01-15T12:44:08.004Z,12.60
2019-01-15T12:45:08.171Z,11.70
2019-01-15T12:46:08.350Z,12.80
2019-01-15T12:47:08.491Z,14.20
2019-01-15T12:48:08.672Z,11.30
2019-01-15T12:49:08.846Z,9.50
2019-01-15T12:50:09.022Z,9.40
2019-01-15T12:51:09.198Z,12.50
2019-01-15T12:52:09.365Z,9.10
2019-01-15T12:53:09.543Z,10.50
2019-01-15T12:54:09.716Z,10.70
2019-01-15T12:55:09.899Z,9.90
2019-01-15T12:56:10.053Z,9.40
2019-01-15T12:57:10.228Z,9.90
2019-01-15T12:58:10.399Z,12.80
2019-01-15T12:59:10.559Z,10.60
2019-01-15T13:00:10.756Z,8.20
2019-01-15T13:01:10.910Z,9.30
2019-01-15T13:02:11.095Z,12.20
2019-01-15T13:03:11.266Z,8.40
2019-01-15T13:04:11.465Z,9.90
2019-01-15T13:05:11.633Z,9.10
2019-01-15T13:06:11.842Z,11.00
2019-01-15T13:07:11.971Z,11.50
2019-01-15T13:08:12.155Z,9.40
2019-01-15T13:09:12.303Z,11.00
2019-01-15T13:10:12.479Z,12.00
2019-01-15T13:11:12.650Z,10.10
2019-01-15T13:12:12.821Z,12.40
2019-01-15T13:13:13.041Z,10.00
2019-01-15T13:14:13.160Z,12.20